Time;durP1;ratioP1;P1;durP2;ratioP2;P2;SDS_P1;SDS_P2;PMS_P1;PMS_P2;Temp;Humidity;BMP_temperature;BMP_pressure;BME280_temperature;BME280_humidity;BME280_pressure;Samples;Min_cycle;Max_cycle;Signal;HPM_P1;HPM_P2
2023/05/13 00:01:18;;;;;;;5.23;4.30;;;17.40;1.00;;;;;;5075875;28;20462;-68
2023/05/13 00:03:45;;;;;;;8.70;4.50;;;17.40;1.00;;;;;;5076068;28;20492;-68
2023/05/13 00:06:12;;;;;;;4.47;4.07;;;17.40;1.00;;;;;;5075529;28;20458;-69
2023/05/13 00:08:39;;;;;;;7.93;4.10;;;17.40;1.00;;;;;;5076027;28;20458;-68
2023/05/13 00:11:07;;;;;;;8.67;4.40;;;17.40;1.00;;;;;;5075614;28;20790;-68
2023/05/13 00:13:34;;;;;;;5.43;3.90;;;17.30;1.00;;;;;;5075454;28;20457;-68
2023/05/13 00:16:02;;;;;;;4.73;4.23;;;17.30;1.00;;;;;;5075047;28;20458;-68
2023/05/13 00:18:29;;;;;;;5.10;4.60;;;17.30;1.00;;;;;;5075397;28;20453;-68
2023/05/13 00:20:56;;;;;;;5.10;4.60;;;17.30;1.00;;;;;;5075055;28;20458;-69
2023/05/13 00:23:23;;;;;;;10.33;8.40;;;17.30;1.00;;;;;;5075383;28;20477;-69
2023/05/13 00:25:49;;;;;;;7.93;5.63;;;17.30;1.00;;;;;;5074900;28;20468;-68
2023/05/13 00:28:19;;;;;;;4.60;4.20;;;17.30;1.00;;;;;;5074802;28;20794;-68
2023/05/13 00:30:46;;;;;;;5.90;4.60;;;17.30;1.00;;;;;;5074978;28;20599;-68
2023/05/13 00:33:13;;;;;;;8.70;5.13;;;17.30;1.00;;;;;;5074505;28;20454;-69
2023/05/13 00:35:40;;;;;;;11.87;5.63;;;17.20;1.00;;;;;;5074327;28;20986;-69
2023/05/13 00:38:07;;;;;;;5.30;4.80;;;17.20;1.00;;;;;;5075156;28;20524;-68
2023/05/13 00:40:38;;;;;;;6.03;4.50;;;17.20;1.00;;;;;;5074454;28;20458;-68
2023/05/13 00:43:05;;;;;;;7.90;4.53;;;17.20;1.00;;;;;;5073435;28;20870;-68
2023/05/13 00:45:33;;;;;;;10.13;5.60;;;17.10;1.00;;;;;;5073383;28;20468;-68
2023/05/13 00:48:00;;;;;;;8.27;5.50;;;17.10;1.00;;;;;;5073665;28;20480;-68
2023/05/13 00:50:27;;;;;;;6.63;4.60;;;17.10;1.00;;;;;;5073761;28;20468;-68
2023/05/13 00:52:57;;;;;;;5.60;4.80;;;17.00;1.00;;;;;;5074208;28;20789;-68
2023/05/13 00:55:25;;;;;;;8.87;4.70;;;17.00;1.00;;;;;;5073568;28;20458;-68
2023/05/13 00:57:52;;;;;;;5.80;4.70;;;17.00;1.00;;;;;;5073525;28;20454;-68
2023/05/13 01:00:20;;;;;;;11.83;4.50;;;17.00;1.00;;;;;;5073843;28;20460;-68
2023/05/13 01:02:54;;;;;;;6.37;4.70;;;17.00;1.00;;;;;;5074114;28;20596;-68
2023/05/13 01:05:28;;;;;;;7.07;5.63;;;16.90;1.00;;;;;;5074024;28;20469;-68
2023/05/13 01:08:02;;;;;;;5.53;4.97;;;16.90;1.00;;;;;;5073886;28;20441;-68
2023/05/13 01:10:36;;;;;;;7.37;4.27;;;16.90;1.00;;;;;;5073678;28;20442;-68
2023/05/13 01:13:09;;;;;;;10.37;4.97;;;16.90;1.00;;;;;;5074088;28;20849;-67
2023/05/13 01:15:40;;;;;;;7.60;4.90;;;16.90;1.00;;;;;;5074147;28;20478;-67
2023/05/13 01:18:12;;;;;;;6.80;4.93;;;16.90;1.00;;;;;;5075327;28;20785;-67
2023/05/13 01:20:42;;;;;;;6.17;3.90;;;16.80;1.00;;;;;;5077641;28;20771;-67
2023/05/13 01:23:10;;;;;;;5.10;4.60;;;16.80;1.00;;;;;;5077445;28;20442;-67
2023/05/13 01:25:38;;;;;;;6.90;4.90;;;16.80;1.00;;;;;;5077471;28;20464;-67
2023/05/13 01:28:05;;;;;;;5.73;4.50;;;16.80;1.00;;;;;;5077345;28;20545;-68
2023/05/13 01:30:32;;;;;;;5.00;4.10;;;16.80;1.00;;;;;;5078945;28;20540;-68
2023/05/13 01:33:00;;;;;;;6.43;4.83;;;16.80;1.00;;;;;;5079822;28;20464;-68
2023/05/13 01:35:28;;;;;;;6.40;4.40;;;16.80;1.00;;;;;;5079188;28;20450;-68
2023/05/13 01:37:56;;;;;;;9.10;5.93;;;16.80;1.00;;;;;;5079371;28;20458;-68
2023/05/13 01:40:25;;;;;;;11.50;5.10;;;16.80;1.00;;;;;;5078746;28;20577;-68
2023/05/13 01:42:51;;;;;;;10.30;4.70;;;16.80;1.00;;;;;;5079081;28;20458;-68
2023/05/13 01:45:18;;;;;;;5.23;4.73;;;16.80;1.00;;;;;;5081698;28;20549;-68
2023/05/13 01:47:46;;;;;;;8.47;4.30;;;16.80;1.00;;;;;;5079886;28;20446;-68
2023/05/13 01:50:13;;;;;;;7.80;4.43;;;16.70;1.00;;;;;;5079931;28;20454;-68
2023/05/13 01:52:40;;;;;;;5.53;4.27;;;16.60;1.00;;;;;;5079840;28;20455;-68
2023/05/13 01:55:07;;;;;;;4.60;4.20;;;16.60;1.00;;;;;;5079259;28;20546;-68
2023/05/13 01:57:35;;;;;;;6.47;4.70;;;16.60;1.00;;;;;;5079340;28;20453;-68
2023/05/13 02:00:04;;;;;;;5.63;5.03;;;16.50;1.00;;;;;;5078913;28;20469;-68
2023/05/13 02:02:31;;;;;;;5.60;5.00;;;16.50;1.00;;;;;;5078942;28;20803;-68
2023/05/13 02:04:58;;;;;;;7.03;5.17;;;16.50;1.00;;;;;;5078946;28;20893;-68
2023/05/13 02:07:24;;;;;;;5.33;4.83;;;16.50;1.00;;;;;;5079321;28;20478;-68
2023/05/13 02:09:54;;;;;;;6.53;4.80;;;16.50;1.00;;;;;;5079579;28;20453;-68
2023/05/13 02:12:21;;;;;;;5.90;5.20;;;16.50;1.00;;;;;;5078003;28;20468;-68
2023/05/13 02:14:49;;;;;;;7.37;4.90;;;16.50;1.00;;;;;;5077939;28;20450;-68
2023/05/13 02:17:16;;;;;;;8.43;5.20;;;16.50;1.00;;;;;;5078469;28;20549;-67
2023/05/13 02:19:42;;;;;;;6.60;4.90;;;16.40;1.00;;;;;;5077668;28;20457;-67
2023/05/13 02:22:09;;;;;;;5.90;4.90;;;16.40;1.00;;;;;;5078078;28;20493;-67
2023/05/13 02:24:38;;;;;;;4.87;4.47;;;16.40;1.00;;;;;;5077651;28;20478;-68
2023/05/13 02:27:06;;;;;;;7.20;5.17;;;16.30;1.00;;;;;;5077279;28;20454;-68
2023/05/13 02:29:33;;;;;;;6.17;5.30;;;16.30;1.00;;;;;;5077362;28;20486;-67
2023/05/13 02:32:01;;;;;;;5.90;5.30;;;16.30;1.00;;;;;;5079360;28;20790;-68
2023/05/13 02:34:28;;;;;;;6.23;4.80;;;16.20;1.00;;;;;;5078944;28;20924;-68
2023/05/13 02:36:55;;;;;;;9.40;5.13;;;16.20;1.00;;;;;;5079707;28;20464;-67
2023/05/13 02:39:21;;;;;;;5.20;4.70;;;16.10;1.00;;;;;;5078982;28;20501;-68
2023/05/13 02:41:48;;;;;;;5.30;4.80;;;16.10;1.00;;;;;;5077271;28;20451;-68
2023/05/13 02:44:15;;;;;;;7.03;5.33;;;16.10;1.00;;;;;;5077239;28;20494;-69
2023/05/13 02:46:43;;;;;;;6.40;4.90;;;16.10;1.00;;;;;;5077194;28;20545;-68
2023/05/13 02:49:11;;;;;;;5.80;5.17;;;16.10;1.00;;;;;;5076585;28;20906;-68
2023/05/13 02:51:38;;;;;;;6.70;5.27;;;16.10;1.00;;;;;;5076515;28;20454;-68
2023/05/13 02:54:06;;;;;;;6.87;5.23;;;16.00;1.00;;;;;;5076722;28;20496;-68
2023/05/13 02:56:32;;;;;;;9.00;5.37;;;16.00;1.00;;;;;;5076773;28;20542;-68
2023/05/13 02:58:59;;;;;;;4.90;4.50;;;16.00;1.00;;;;;;5076954;28;20549;-68
2023/05/13 03:01:26;;;;;;;5.67;4.90;;;16.00;1.00;;;;;;5076869;28;20607;-68
2023/05/13 03:03:53;;;;;;;6.83;5.10;;;15.90;1.00;;;;;;5076792;28;20469;-68
2023/05/13 03:06:21;;;;;;;6.30;5.00;;;15.90;1.00;;;;;;5077026;28;20551;-68
2023/05/13 03:08:48;;;;;;;6.23;5.00;;;15.90;1.00;;;;;;5076932;28;20458;-68
2023/05/13 03:11:15;;;;;;;5.07;4.57;;;15.90;1.00;;;;;;5076428;28;20458;-68
2023/05/13 03:13:42;;;;;;;5.33;4.83;;;15.90;1.00;;;;;;5076497;28;20508;-69
2023/05/13 03:16:08;;;;;;;7.63;4.73;;;15.90;1.00;;;;;;5076397;28;20461;-68
2023/05/13 03:18:35;;;;;;;5.23;4.80;;;15.90;1.00;;;;;;5076915;28;20496;-68
2023/05/13 03:21:02;;;;;;;6.50;5.10;;;15.90;1.00;;;;;;5076467;28;20464;-68
2023/05/13 03:23:31;;;;;;;6.27;5.07;;;15.90;1.00;;;;;;5076416;28;20458;-68
2023/05/13 03:25:58;;;;;;;6.50;5.17;;;15.80;1.00;;;;;;5076361;28;20478;-68
2023/05/13 03:28:25;;;;;;;6.77;4.83;;;15.80;1.00;;;;;;5076881;28;20545;-68
2023/05/13 03:30:52;;;;;;;6.13;5.40;;;15.80;1.00;;;;;;5075865;28;20471;-68
2023/05/13 03:33:19;;;;;;;9.73;4.70;;;15.80;1.00;;;;;;5076167;28;20458;-67
2023/05/13 03:35:47;;;;;;;6.20;4.80;;;15.80;1.00;;;;;;5075957;28;20991;-68
2023/05/13 03:38:14;;;;;;;10.70;5.13;;;15.70;1.00;;;;;;5075892;28;20469;-68
2023/05/13 03:40:42;;;;;;;6.83;5.13;;;15.70;1.00;;;;;;5075623;28;20442;-68
2023/05/13 03:43:09;;;;;;;9.23;5.27;;;15.70;1.00;;;;;;5075459;28;20469;-68
2023/05/13 03:45:36;;;;;;;6.80;5.00;;;15.70;1.00;;;;;;5075095;28;20480;-68
2023/05/13 03:48:02;;;;;;;5.83;5.23;;;15.60;1.00;;;;;;5076027;28;20454;-68
2023/05/13 03:50:29;;;;;;;6.20;5.50;;;15.60;1.00;;;;;;5075922;28;20734;-68
2023/05/13 03:52:56;;;;;;;10.13;5.30;;;15.60;1.00;;;;;;5075633;28;20461;-68
2023/05/13 03:55:23;;;;;;;7.73;5.70;;;15.50;1.00;;;;;;5075411;28;20464;-68
2023/05/13 03:57:51;;;;;;;11.27;5.30;;;15.50;1.00;;;;;;5075279;28;20856;-68
2023/05/13 04:00:18;;;;;;;7.40;5.13;;;15.50;1.00;;;;;;5074898;28;20933;-68
2023/05/13 04:02:45;;;;;;;7.23;4.97;;;15.50;1.00;;;;;;5075037;28;20490;-68
2023/05/13 04:05:12;;;;;;;6.10;5.30;;;15.50;1.00;;;;;;5074991;28;20569;-68
2023/05/13 04:07:40;;;;;;;6.07;4.20;;;15.40;1.00;;;;;;5076099;28;20458;-68
2023/05/13 04:10:09;;;;;;;5.87;5.27;;;15.40;1.00;;;;;;5075614;28;20458;-68
2023/05/13 04:12:36;;;;;;;14.03;5.23;;;15.40;1.00;;;;;;5075714;28;20493;-68
2023/05/13 04:15:05;;;;;;;5.80;5.20;;;15.40;1.00;;;;;;5075554;28;20501;-68
2023/05/13 04:17:32;;;;;;;6.40;5.13;;;15.40;1.00;;;;;;5075597;28;20915;-68
2023/05/13 04:19:59;;;;;;;9.90;5.20;;;15.40;1.00;;;;;;5075682;28;20490;-67
2023/05/13 04:22:25;;;;;;;5.67;5.00;;;15.40;1.00;;;;;;5075778;28;20869;-68
2023/05/13 04:24:55;;;;;;;5.40;5.00;;;15.40;1.00;;;;;;5075631;28;20573;-68
2023/05/13 04:27:22;;;;;;;6.20;5.47;;;15.30;1.00;;;;;;5075458;28;20492;-68
2023/05/13 04:29:49;;;;;;;7.80;5.30;;;15.40;1.00;;;;;;5075294;28;20449;-68
2023/05/13 04:32:20;;;;;;;7.37;5.00;;;15.40;1.00;;;;;;5075602;28;20454;-68
2023/05/13 04:34:47;;;;;;;7.90;5.13;;;15.40;1.00;;;;;;5075987;28;20435;-68
2023/05/13 04:37:14;;;;;;;10.67;5.80;;;15.40;66.50;;;;;;5075884;28;20954;-67
2023/05/13 04:39:41;;;;;;;6.13;4.50;;;15.40;99.90;;;;;;5075018;28;20482;-68
2023/05/13 04:42:08;;;;;;;6.30;4.93;;;15.40;99.90;;;;;;5075024;28;20494;-68
2023/05/13 04:44:35;;;;;;;5.47;4.83;;;15.40;72.70;;;;;;5075019;28;20561;-68
2023/05/13 04:47:02;;;;;;;7.43;5.00;;;15.40;99.90;;;;;;5074874;28;20945;-68
2023/05/13 04:49:30;;;;;;;5.97;4.90;;;15.40;99.90;;;;;;5075197;28;20478;-69
2023/05/13 04:51:57;;;;;;;6.03;5.27;;;15.40;87.90;;;;;;5076501;28;20458;-68
2023/05/13 04:54:24;;;;;;;6.50;5.40;;;15.40;99.90;;;;;;5079111;28;20871;-68
2023/05/13 04:56:51;;;;;;;8.80;5.43;;;15.40;99.90;;;;;;5078946;28;20473;-68
2023/05/13 04:59:18;;;;;;;5.13;4.63;;;15.50;99.90;;;;;;5079179;28;20473;-68
2023/05/13 05:01:45;;;;;;;5.10;4.57;;;15.50;99.90;;;;;;5078852;28;20460;-68
2023/05/13 05:04:12;;;;;;;5.00;4.57;;;15.50;1.00;;;;;;5079022;28;20458;-68
2023/05/13 05:06:40;;;;;;;9.60;5.47;;;15.60;99.90;;;;;;5079095;28;20573;-68
2023/05/13 05:09:07;;;;;;;8.83;4.53;;;15.60;1.00;;;;;;5079283;28;20842;-68
2023/05/13 05:11:34;;;;;;;7.03;5.00;;;15.60;99.90;;;;;;5078618;28;20457;-68
2023/05/13 05:14:01;;;;;;;7.00;5.40;;;15.60;99.90;;;;;;5078824;28;20794;-68
2023/05/13 05:16:28;;;;;;;6.10;5.00;;;15.60;99.90;;;;;;5079008;28;20481;-69
2023/05/13 05:18:55;;;;;;;7.40;4.70;;;15.60;99.90;;;;;;5078720;28;20523;-68
2023/05/13 05:21:23;;;;;;;5.10;4.60;;;15.60;99.90;;;;;;5078513;28;20458;-68
2023/05/13 05:23:51;;;;;;;6.23;5.50;;;15.60;1.00;;;;;;5078736;28;20557;-68
2023/05/13 05:26:18;;;;;;;9.00;5.30;;;15.70;1.00;;;;;;5078569;28;20587;-68
2023/05/13 05:28:45;;;;;;;6.53;4.77;;;15.70;1.00;;;;;;5078119;28;20931;-69
2023/05/13 05:31:13;;;;;;;7.03;4.67;;;15.70;99.90;;;;;;5078421;28;20486;-68
2023/05/13 05:33:40;;;;;;;15.10;4.80;;;15.80;1.00;;;;;;5078173;28;20479;-67
2023/05/13 05:36:08;;;;;;;7.60;4.80;;;15.80;1.00;;;;;;5077980;28;20454;-68
2023/05/13 05:38:35;;;;;;;6.70;4.63;;;15.80;1.00;;;;;;5077848;28;20832;-68
2023/05/13 05:41:03;;;;;;;6.07;4.40;;;15.90;99.90;;;;;;5077560;28;20448;-68
2023/05/13 05:43:30;;;;;;;8.77;4.80;;;15.90;1.00;;;;;;5077599;28;20462;-68
2023/05/13 05:45:57;;;;;;;4.37;3.90;;;15.90;99.90;;;;;;5077968;28;20489;-68
2023/05/13 05:48:24;;;;;;;6.20;4.57;;;16.00;99.90;;;;;;5077672;28;20454;-69
2023/05/13 05:50:51;;;;;;;5.70;4.33;;;16.00;1.00;;;;;;5077864;28;20531;-68
2023/05/13 05:53:17;;;;;;;6.10;4.37;;;16.10;1.00;;;;;;5077791;28;20464;-68
2023/05/13 05:55:44;;;;;;;7.23;4.70;;;16.20;1.00;;;;;;5078107;28;20539;-69
2023/05/13 05:58:15;;;;;;;5.10;4.00;;;16.30;40.10;;;;;;5077851;28;20956;-68
2023/05/13 06:00:42;;;;;;;9.10;4.60;;;16.30;1.00;;;;;;5078173;28;20636;-68
2023/05/13 06:03:08;;;;;;;6.90;3.93;;;16.30;1.00;;;;;;5076998;28;20890;-68
2023/05/13 06:05:35;;;;;;;6.63;3.87;;;16.40;99.90;;;;;;5077653;28;20573;-68
2023/05/13 06:08:02;;;;;;;5.47;4.10;;;16.50;99.90;;;;;;5077361;28;20458;-69
2023/05/13 06:10:29;;;;;;;9.40;4.53;;;16.50;1.00;;;;;;5077389;28;20454;-68
2023/05/13 06:12:56;;;;;;;8.23;4.53;;;16.60;1.00;;;;;;5077163;28;20540;-68
2023/05/13 06:15:24;;;;;;;6.43;3.63;;;16.70;1.00;;;;;;5077217;28;20485;-68
2023/05/13 06:17:51;;;;;;;4.50;3.70;;;16.80;1.00;;;;;;5077111;28;20473;-68
2023/05/13 06:20:18;;;;;;;4.37;3.97;;;16.90;1.00;;;;;;5077193;28;20516;-68
2023/05/13 06:22:45;;;;;;;4.37;3.80;;;16.90;9.50;;;;;;5077118;28;20454;-68
2023/05/13 06:25:12;;;;;;;6.90;4.53;;;17.10;47.40;;;;;;5076921;28;20556;-68
2023/05/13 06:27:39;;;;;;;4.90;4.40;;;17.10;48.50;;;;;;5077111;28;20549;-68
2023/05/13 06:30:07;;;;;;;5.27;3.63;;;17.20;47.40;;;;;;5076864;28;20557;-68
2023/05/13 06:32:35;;;;;;;5.73;3.90;;;17.30;48.90;;;;;;5076863;28;20458;-68
2023/05/13 06:35:02;;;;;;;4.20;3.80;;;17.30;46.70;;;;;;5076477;28;20541;-68
2023/05/13 06:37:29;;;;;;;4.33;3.93;;;17.40;47.70;;;;;;5076930;28;20454;-68
2023/05/13 06:39:55;;;;;;;7.40;4.30;;;17.50;47.60;;;;;;5076265;28;21038;-68
2023/05/13 06:42:22;;;;;;;6.83;3.67;;;17.50;47.60;;;;;;5076281;28;20458;-68
2023/05/13 06:44:49;;;;;;;4.43;3.87;;;17.60;46.60;;;;;;5076572;28;20549;-68
2023/05/13 06:47:16;;;;;;;4.43;3.90;;;17.60;45.70;;;;;;5076964;28;20450;-68
2023/05/13 06:49:44;;;;;;;5.10;3.93;;;17.60;44.20;;;;;;5076032;28;20526;-68
2023/05/13 06:52:11;;;;;;;4.50;3.80;;;17.60;46.00;;;;;;5076496;28;20460;-68
2023/05/13 06:54:38;;;;;;;3.50;3.20;;;17.60;45.40;;;;;;5076572;28;20451;-68
2023/05/13 06:57:06;;;;;;;4.47;3.40;;;17.70;44.30;;;;;;5076232;28;20447;-68
2023/05/13 06:59:33;;;;;;;4.50;3.43;;;17.70;44.90;;;;;;5076260;28;20453;-68
2023/05/13 07:01:59;;;;;;;3.67;3.33;;;17.80;44.30;;;;;;5076087;28;20450;-68
2023/05/13 07:04:28;;;;;;;5.20;3.60;;;17.80;43.10;;;;;;5075821;28;20970;-67
2023/05/13 07:06:56;;;;;;;3.73;3.43;;;17.90;44.60;;;;;;5075901;28;20513;-67
2023/05/13 07:09:23;;;;;;;7.33;4.43;;;18.00;44.50;;;;;;5075714;28;20493;-68
2023/05/13 07:11:50;;;;;;;5.73;4.20;;;17.90;43.90;;;;;;5075316;28;20911;-68
2023/05/13 07:14:17;;;;;;;4.03;3.50;;;18.00;43.50;;;;;;5075671;28;20537;-67
2023/05/13 07:16:44;;;;;;;4.80;4.23;;;18.00;41.80;;;;;;5074776;28;20600;-67
2023/05/13 07:19:11;;;;;;;4.00;3.50;;;18.00;41.10;;;;;;5075703;28;20458;-67
2023/05/13 07:21:38;;;;;;;6.40;3.20;;;18.10;41.90;;;;;;5075631;28;20454;-69
2023/05/13 07:24:06;;;;;;;4.30;3.37;;;18.20;41.70;;;;;;5075236;28;20937;-68
2023/05/13 07:26:33;;;;;;;4.70;4.17;;;18.20;40.30;;;;;;5075234;28;20572;-68
2023/05/13 07:29:00;;;;;;;3.40;3.00;;;18.20;39.60;;;;;;5074827;28;20460;-68
2023/05/13 07:31:27;;;;;;;5.20;3.17;;;18.20;39.30;;;;;;5075287;28;20454;-68
2023/05/13 07:33:54;;;;;;;3.13;2.80;;;18.20;38.60;;;;;;5074931;28;20507;-68
2023/05/13 07:36:22;;;;;;;5.20;4.07;;;18.30;38.80;;;;;;5074840;28;20466;-68
2023/05/13 07:38:48;;;;;;;3.27;2.97;;;18.40;38.80;;;;;;5074666;28;20478;-68
2023/05/13 07:41:17;;;;;;;5.53;3.10;;;18.40;38.00;;;;;;5074788;28;20489;-68
2023/05/13 07:43:43;;;;;;;3.73;2.73;;;18.50;37.50;;;;;;5075052;28;20468;-68
2023/05/13 07:46:10;;;;;;;3.70;3.20;;;18.50;36.70;;;;;;5074704;28;20759;-67
2023/05/13 07:48:37;;;;;;;7.63;3.40;;;18.60;35.20;;;;;;5074630;28;20454;-68
2023/05/13 07:51:05;;;;;;;8.03;3.37;;;18.60;35.70;;;;;;5074855;28;20796;-67
2023/05/13 07:53:31;;;;;;;4.23;3.10;;;18.70;36.10;;;;;;5074479;28;20541;-67
2023/05/13 07:55:58;;;;;;;3.77;2.90;;;18.80;34.10;;;;;;5078997;28;20859;-69
2023/05/13 07:58:27;;;;;;;13.23;3.70;;;18.90;34.10;;;;;;5080231;28;20529;-70
2023/05/13 08:00:53;;;;;;;3.20;2.90;;;18.90;31.70;;;;;;5080800;28;20533;-69
2023/05/13 08:03:20;;;;;;;3.53;2.70;;;18.90;31.30;;;;;;5081984;28;20454;-69
2023/05/13 08:05:47;;;;;;;3.33;2.73;;;19.00;31.30;;;;;;5081656;28;20935;-70
2023/05/13 08:08:14;;;;;;;9.13;3.30;;;19.00;31.00;;;;;;5081539;28;20450;-71
2023/05/13 08:10:41;;;;;;;8.63;3.60;;;19.00;30.60;;;;;;5080342;28;20460;-70
2023/05/13 08:13:08;;;;;;;5.53;3.17;;;19.10;30.40;;;;;;5080693;28;20526;-69
2023/05/13 08:15:37;;;;;;;5.33;3.20;;;19.10;31.00;;;;;;5080678;28;20458;-69
2023/05/13 08:18:04;;;;;;;5.70;3.00;;;19.10;31.10;;;;;;5079532;28;20454;-70
2023/05/13 08:20:31;;;;;;;3.67;2.80;;;19.20;31.80;;;;;;5080024;28;20465;-70
2023/05/13 08:23:00;;;;;;;9.10;3.20;;;19.20;31.70;;;;;;5079458;28;20521;-70
2023/05/13 08:25:27;;;;;;;3.57;3.23;;;19.20;32.10;;;;;;5079156;28;20458;-70
2023/05/13 08:27:54;;;;;;;3.70;2.90;;;19.30;31.90;;;;;;5078871;28;20458;-70
2023/05/13 08:30:21;;;;;;;3.00;2.70;;;19.30;31.80;;;;;;5078892;28;20454;-70
2023/05/13 08:32:49;;;;;;;3.90;3.50;;;19.30;31.00;;;;;;5079146;28;20470;-70
2023/05/13 08:35:16;;;;;;;3.60;3.03;;;19.40;31.90;;;;;;5078213;28;20509;-70
2023/05/13 08:37:43;;;;;;;5.90;2.93;;;19.40;31.40;;;;;;5077570;28;20541;-70
2023/05/13 08:40:12;;;;;;;5.97;3.57;;;19.50;32.20;;;;;;5077793;28;20592;-70
2023/05/13 08:42:39;;;;;;;7.90;3.30;;;19.60;31.70;;;;;;5078599;28;20454;-70
2023/05/13 08:45:09;;;;;;;4.10;3.10;;;19.70;32.40;;;;;;5077170;28;20525;-70
2023/05/13 08:47:47;;;;;;;5.40;2.93;;;19.70;31.80;;;;;;5077731;28;20818;-70
2023/05/13 08:50:16;;;;;;;5.60;3.37;;;19.80;30.70;;;;;;5077547;28;20453;-73
2023/05/13 08:52:44;;;;;;;5.13;3.17;;;19.80;30.80;;;;;;5077474;28;20462;-70
2023/05/13 08:55:11;;;;;;;3.80;3.40;;;19.90;31.20;;;;;;5076365;28;20454;-70
2023/05/13 08:57:38;;;;;;;5.17;3.20;;;19.90;31.20;;;;;;5077052;28;20540;-70
2023/05/13 09:00:07;;;;;;;8.27;3.10;;;20.00;31.80;;;;;;5077315;28;20512;-70
2023/05/13 09:02:33;;;;;;;7.10;3.23;;;20.00;31.10;;;;;;5076048;28;20946;-69
2023/05/13 09:05:06;;;;;;;6.70;3.27;;;20.10;31.40;;;;;;5075863;28;20461;-71
2023/05/13 09:07:35;;;;;;;5.77;3.20;;;20.20;30.60;;;;;;5076493;28;20463;-70
2023/05/13 09:10:02;;;;;;;5.00;2.80;;;20.20;30.60;;;;;;5076572;28;20462;-69
2023/05/13 09:12:54;;;;;;;4.60;3.30;;;20.20;31.00;;;;;;5076396;28;20454;-70
2023/05/13 09:15:22;;;;;;;8.27;3.50;;;20.30;29.70;;;;;;5061696;28;20537;-71
2023/05/13 09:17:51;;;;;;;6.03;3.00;;;20.40;29.10;;;;;;5075614;28;20450;-71
2023/05/13 09:20:19;;;;;;;4.63;3.30;;;20.40;29.50;;;;;;5076110;28;20498;-71
2023/05/13 09:22:49;;;;;;;3.70;3.30;;;20.40;29.00;;;;;;5075991;28;20493;-69
2023/05/13 09:25:18;;;;;;;4.93;3.20;;;20.50;29.90;;;;;;5076641;28;20438;-70
2023/05/13 09:27:47;;;;;;;4.97;3.20;;;20.60;29.30;;;;;;5075773;28;20478;-70
2023/05/13 09:30:14;;;;;;;5.27;2.83;;;20.60;28.50;;;;;;5075402;28;20545;-70
2023/05/13 09:32:43;;;;;;;3.40;3.10;;;20.60;29.10;;;;;;5076612;28;20560;-71
2023/05/13 09:35:12;;;;;;;6.10;2.90;;;20.70;28.90;;;;;;5076765;28;20515;-70
2023/05/13 09:37:39;;;;;;;4.17;3.00;;;20.80;29.30;;;;;;5075844;28;20763;-70
2023/05/13 09:40:12;;;;;;;6.10;2.97;;;20.90;29.20;;;;;;5079140;28;20577;-69
2023/05/13 09:42:42;;;;;;;5.90;3.67;;;20.90;28.10;;;;;;5079507;28;20442;-69
2023/05/13 09:45:10;;;;;;;3.97;3.53;;;20.90;28.10;;;;;;5077880;28;20457;-69
2023/05/13 09:47:37;;;;;;;4.37;3.23;;;21.00;28.10;;;;;;5077282;28;20484;-69
2023/05/13 09:50:05;;;;;;;3.70;3.00;;;21.00;27.90;;;;;;5077537;28;20465;-69
2023/05/13 09:52:33;;;;;;;5.20;2.70;;;21.10;28.30;;;;;;5077869;28;20527;-69
2023/05/13 09:55:00;;;;;;;5.57;3.30;;;21.20;27.90;;;;;;5077252;28;20545;-69
2023/05/13 09:57:29;;;;;;;2.97;2.67;;;21.20;28.10;;;;;;5076862;28;20917;-68
2023/05/13 09:59:58;;;;;;;3.20;2.80;;;21.30;28.00;;;;;;5076590;28;20997;-68
2023/05/13 10:02:26;;;;;;;4.57;2.63;;;21.40;26.70;;;;;;5077056;28;20494;-69
2023/05/13 10:04:53;;;;;;;3.60;2.40;;;21.30;25.50;;;;;;5077444;28;20457;-69
2023/05/13 10:07:23;;;;;;;8.83;2.83;;;21.40;25.70;;;;;;5076798;28;20481;-70
2023/05/13 10:09:53;;;;;;;4.37;2.70;;;21.40;25.00;;;;;;5077594;28;20536;-70
2023/05/13 10:12:21;;;;;;;3.07;2.10;;;21.40;24.50;;;;;;5077539;28;20489;-69
2023/05/13 10:14:51;;;;;;;5.40;2.93;;;21.50;24.20;;;;;;5077420;28;20545;-69
2023/05/13 10:17:20;;;;;;;7.80;2.40;;;21.40;24.40;;;;;;5076914;28;20462;-69
2023/05/13 10:19:49;;;;;;;4.17;2.53;;;21.50;24.50;;;;;;5076974;28;20915;-69
2023/05/13 10:22:17;;;;;;;3.17;2.87;;;21.60;24.80;;;;;;5076830;28;20450;-69
2023/05/13 10:24:44;;;;;;;2.93;2.73;;;21.70;24.40;;;;;;5076811;28;20454;-69
2023/05/13 10:27:12;;;;;;;3.03;2.83;;;21.80;25.00;;;;;;5076659;28;20573;-69
2023/05/13 10:29:40;;;;;;;6.33;2.80;;;21.90;24.70;;;;;;5076513;28;20454;-69
2023/05/13 10:32:09;;;;;;;4.40;2.73;;;21.90;24.40;;;;;;5076623;28;20557;-70
2023/05/13 10:34:38;;;;;;;5.07;2.70;;;22.00;24.20;;;;;;5076526;28;20462;-69
2023/05/13 10:37:20;;;;;;;3.13;2.70;;;22.10;24.10;;;;;;5076592;28;20914;-69
2023/05/13 10:40:12;;;;;;;4.00;2.77;;;22.20;23.50;;;;;;5076105;28;20533;-69
2023/05/13 10:42:43;;;;;;;3.47;2.90;;;22.20;24.30;;;;;;5076276;28;20447;-70
2023/05/13 10:45:10;;;;;;;8.40;3.13;;;22.30;23.90;;;;;;5076293;28;20454;-69
2023/05/13 10:47:39;;;;;;;4.43;3.00;;;22.30;22.90;;;;;;5075632;28;20480;-72
2023/05/13 10:50:21;;;;;;;4.17;2.83;;;22.40;23.20;;;;;;5075660;28;20458;-69
2023/05/13 10:52:48;;;;;;;5.30;2.97;;;22.40;22.80;;;;;;5076076;28;20452;-70
2023/05/13 10:55:17;;;;;;;4.43;2.87;;;22.50;22.70;;;;;;5075741;28;20565;-69
2023/05/13 10:58:08;;;;;;;4.80;2.57;;;22.50;22.20;;;;;;5075855;28;20537;-70
2023/05/13 11:00:36;;;;;;;6.20;2.60;;;22.50;21.70;;;;;;5075932;28;20833;-69
2023/05/13 11:03:15;;;;;;;6.50;2.60;;;22.60;21.90;;;;;;5075613;28;20454;-69
2023/05/13 11:05:45;;;;;;;4.83;2.57;;;22.60;22.10;;;;;;5076082;28;20525;-69
2023/05/13 11:08:32;;;;;;;3.40;2.30;;;22.70;21.80;;;;;;5075704;28;20462;-69
2023/05/13 11:10:59;;;;;;;3.30;2.50;;;22.80;20.60;;;;;;5075720;28;20439;-69
2023/05/13 11:13:36;;;;;;;3.40;2.30;;;22.90;20.90;;;;;;5075926;28;20959;-69
2023/05/13 11:16:06;;;;;;;3.40;2.20;;;23.10;21.30;;;;;;5075762;28;20453;-69
2023/05/13 11:18:35;;;;;;;5.83;2.40;;;23.80;20.20;;;;;;5075884;28;20515;-69
2023/05/13 11:21:07;;;;;;;3.77;2.47;;;24.90;19.70;;;;;;5075643;28;20887;-69
2023/05/13 11:23:49;;;;;;;2.67;2.23;;;26.30;19.80;;;;;;5075781;28;20907;-70
2023/05/13 11:26:17;;;;;;;2.97;2.40;;;27.80;18.30;;;;;;5075226;28;20445;-69
2023/05/13 11:29:03;;;;;;;6.80;2.63;;;29.40;17.30;;;;;;5075136;28;20450;-70
2023/05/13 11:31:44;;;;;;;2.87;2.40;;;30.50;15.00;;;;;;5075155;28;20445;-70
2023/05/13 11:34:14;;;;;;;3.53;2.70;;;31.60;14.50;;;;;;5075428;28;20446;-69
2023/05/13 11:36:42;;;;;;;2.53;2.33;;;32.60;13.20;;;;;;5074961;28;20487;-69
2023/05/13 11:39:12;;;;;;;2.73;2.53;;;33.40;11.80;;;;;;5078647;28;20479;-70
2023/05/13 11:41:41;;;;;;;3.23;2.70;;;33.90;11.90;;;;;;5077947;28;20454;-70
2023/05/13 11:44:10;;;;;;;4.40;2.30;;;34.40;11.30;;;;;;5076847;28;20523;-70
2023/05/13 11:46:37;;;;;;;6.27;2.43;;;34.70;10.40;;;;;;5077087;28;20534;-71
2023/05/13 11:49:04;;;;;;;3.80;2.53;;;35.30;10.40;;;;;;5078021;28;20458;-70
2023/05/13 11:51:34;;;;;;;3.93;2.10;;;35.60;9.00;;;;;;5077556;28;20450;-71
2023/05/13 11:54:02;;;;;;;2.47;2.03;;;35.90;8.70;;;;;;5077554;28;20827;-71
2023/05/13 11:56:30;;;;;;;5.30;2.63;;;35.60;7.90;;;;;;5077680;28;20462;-71
2023/05/13 11:59:11;;;;;;;3.87;2.30;;;35.20;8.30;;;;;;5077466;28;20965;-72
2023/05/13 12:01:38;;;;;;;3.70;2.40;;;35.30;8.20;;;;;;5077320;28;20442;-70
2023/05/13 12:04:06;;;;;;;4.67;2.40;;;35.60;7.80;;;;;;5077932;28;20545;-72
2023/05/13 12:06:35;;;;;;;8.00;2.57;;;35.90;7.30;;;;;;5077492;28;20458;-71
2023/05/13 12:09:06;;;;;;;4.30;2.50;;;36.10;7.20;;;;;;5077748;28;20465;-71
2023/05/13 12:11:33;;;;;;;3.77;3.47;;;36.40;6.80;;;;;;5077296;28;20443;-71
2023/05/13 12:14:00;;;;;;;4.10;2.40;;;36.60;6.50;;;;;;5076600;28;20553;-69
2023/05/13 12:16:27;;;;;;;12.30;2.33;;;36.90;6.50;;;;;;5075257;28;20457;-70
2023/05/13 12:19:00;;;;;;;11.67;2.10;;;37.10;6.30;;;;;;5074534;28;20450;-70
2023/05/13 12:21:31;;;;;;;4.10;2.87;;;37.40;5.90;;;;;;5075281;28;20485;-69
2023/05/13 12:23:59;;;;;;;10.40;4.07;;;37.40;6.00;;;;;;5074418;28;20474;-70
2023/05/13 12:26:27;;;;;;;6.13;2.20;;;37.60;5.70;;;;;;5074558;28;20510;-69
2023/05/13 12:28:58;;;;;;;5.17;2.70;;;37.40;5.00;;;;;;5074285;28;20473;-70
2023/05/13 12:31:25;;;;;;;5.00;2.20;;;37.60;5.50;;;;;;5074187;28;20458;-69
2023/05/13 12:33:52;;;;;;;4.83;2.20;;;37.60;5.70;;;;;;5074231;28;20542;-70
2023/05/13 12:36:22;;;;;;;5.13;2.83;;;37.70;5.00;;;;;;5074343;28;20458;-70
2023/05/13 12:38:57;;;;;;;6.60;3.10;;;38.00;5.20;;;;;;5074137;28;20478;-69
2023/05/13 12:41:29;;;;;;;3.73;1.93;;;38.30;5.20;;;;;;5074367;28;20913;-69
2023/05/13 12:43:58;;;;;;;5.53;2.60;;;38.60;4.80;;;;;;5074626;28;20508;-69
2023/05/13 12:46:25;;;;;;;3.40;3.03;;;38.70;4.60;;;;;;5074338;28;20446;-70
2023/05/13 12:48:56;;;;;;;3.00;2.27;;;38.50;4.90;;;;;;5074538;28;20505;-69
2023/05/13 12:51:23;;;;;;;8.63;2.60;;;38.30;5.10;;;;;;5074540;28;20462;-69
2023/05/13 12:53:52;;;;;;;5.10;2.40;;;37.90;4.60;;;;;;5074354;28;20458;-70
2023/05/13 12:56:21;;;;;;;7.00;2.40;;;37.50;4.60;;;;;;5074196;28;20462;-69